Timeline UpdatesTrip UpdatesNews PostsPvt Posts♥♥Travel TipsAdmin PostsConv PostsFollowed PostsChat RequestsBlog PostsPNR Posts

Disclaimer
Search
 
 
Fri Nov 28, 2014 23:30:39 ISTHomeTrainsΣChainsAtlasPNRForumGalleryNewsFAQTripsMembersLoginFeedback
No Recent News for this Train
Other Trains in the News **new
Latest...
.
Wed Nov 13, 2013 (07:25AM)
⇐ Return Journey: Train# 16687

16688/Navyug Express

Time-Table HAS CHANGED.
Sep 24 2014 (8:13PM)
Change Departure Station:
Change Arrival Station:
Post a Train Travel TipPost a Train Travel Tip **new
Post a Comment/Question/Picture/VideoPost a Comment/Question/Picture/Video
Pantry/Catering
✓ Pantry Car Avbl
✓ Catering Avbl
Good Food
RSA - Rake Sharing
NO RSA
Rake/Coach Composition
ED- MAQ ENG-SLR-UR-UR-A1-B1-S1-S2-S3-S4-S5-PC-SLR; ED TEN: [S6-S7-S8-S9-A2-UR-SLR ]; JAT - ED- ENG-SLR-UR-UR-A1-B1-S1-S2-S3-S4-S5-PC-S6-S7-S8-S9-A2-UR-SLR
Loco
JAT-NDLS WDM 3A TKD-SHED WAP-4 (NDLS 2 SRR) ERS WDM 3A SRR-MAQ
News    PNR    Forum    Time-Table    Availability    Fare Chart    Map    Arr/Dep History    Trips    Gallery    ΣChains    X/O    Timeline    
Travel Time: 3h 7m    6 halts    Distance: 170 km    Avg Speed: 54 km/hr
Type: Mail/Express
Zone: SR/Southern
Departs @ 23:45 (Avg 1h 34m late)
Platform# 2
    T  
Jammu Tawi/JAT 
Arrives @ 02:52 +1 night (Avg 1h 43m late)
Platform# 2
     F 
Tanda Urmar/TDO 

6 halts. 29 intermediate Stations between Jammu Tawi and Tanda Urmar

Show ALL intermediate Stations  Show Old Time-Table

#TrkCodeStation NameX/OArrivesAvgDepartsAvgHaltPFDay#KmSpeedElevZoneAddress
1/--/JATJammu Tawi (3)»  -23:45+1:34210.065337mNRJammu 180002, Jammu and Kashmir
2/--/SMBXSamba (2)  00:15+1:4300:17+1:432m1232.764365mNRDist. Samba, Jammu and Kashmir
3/--/KTHUKathua (2)  00:58+1:4501:00+1:462m2276.349396mNRdistt. kathua, Jammu and Kashmir
4/--/MDPBMadhopur Punjab (2)  01:10-01:12-2m1284.456357mNRMadhopur, Punjab
5/--/PTKCPathankot Cantt (3)  01:28+1:5301:33+1:535m1299.457328mNRPathankot By Pass Ph:0186-2251594, Punjab
6/--/MEXMukerian (3)  02:15+1:4502:17+1:452m12139.353257mNRMukerian distt. hosiharpur, Punjab
7/--/DZADasuya (2)X  02:34+1:4402:36+1:442m12154.358251mNRDasuya distt. hoshiarpur, Punjab
8/--/TDOTanda Urmar (3)•  02:52+1:4302:54+1:432m22169.762239mNRUrmar Tanda, Punjab
9/--/JRCJalandhar Cantt. Junction (3)X  03:35+1:4003:40+1:395m32211.954239mNRNear Rama Mandi, Punjab
10/==/PGWPhagwara Junction (3)  03:58+1:3604:00+1:372m12228.275245mNRPhagwara, Punjab
11/==/PHRPhillaur Junction (3)X  04:18+1:3804:20+1:392m12250.820246mNRPhillaur, Punjab
12/==/LDHLudhiana Junction (7)X  05:00+1:2805:15+1:2115m52263.963246mNRLudhiana 141001, Punjab
13|--|QRPKila Raipur (1)  05:32+1:3605:34+1:402m12281.651262mNRDelhon Pakhowal Rd, Punjab
14|--|AHHAhmadgarh (1)  05:43+1:4205:45+1:412m12289.343256mNRAhmedgarh, Punjab
15|--|METMalerkotla (2)  06:13+1:3706:15+1:382m12309.150248mNRMalerkotla., Punjab
16|--|DUIDhuri Junction (4)X  06:35+1:3807:00+1:2225m--2326.064248mNRDhuri, Punjab
17|--|SAGSangrur (2)X  07:15+2:0807:17+2:082m12342.035239mNRSangrur, Punjab
18|--|SFMSunam (1)  07:39+1:1607:41+1:162m12354.871235mNRSunam, Punjab
19|--|LHALehra Gaga (1)  07:59+1:1808:01+1:222m12376.119227mNRSangrur, Punjab
20|-=|JHLJakhal Junction  08:55+5909:00+1:035m--2393.067225mNRJakhal, Haryana
21|==|TUNTohana (2)  09:11+1:0609:13+1:062m--2405.261232mNRTohana, Haryana
22|==|NRWNarwana Junction (4)X  09:38+1:0409:40+1:042m--2430.765235mNRKKDE, Haryana
23|==|UCAUchana  09:54+1:1409:56+1:142m--2445.958225mNRDistrict Jind, Haryana
24|==|BZOBarsola  10:06+1:0710:08+1:062m--2455.534224mNRDistrict Jind, Haryana
25|==|JINDJind Junction (3)X  10:24+1:0010:27+1:003m--2464.673222mNRJind 126102, Haryana
26|==|JNAJulana  10:50 10:48+1:0610:52 10:50+1:062m--2490.367226mNRJulana, Haryana
27|==|ROKRohtak Junction (3)  11:45 11:18+1:0611:47 11:20+1:062m--2521.773220mNRRohtak, Haryana
28/==/BGZBahadurgarh  12:19 11:53+1:2012:21 11:55+1:202m--2562.029220mNRBahadurgarh, Haryana
29/==/SSBShakur Basti  12:56 12:36+5712:58 12:38+1:002m--2581.913216mNRPitampura, Delhi NCT
30/==/NDLSNew Delhi (16)X  13:35 13:30+1:0114:30 14:15+5155 45m92592.816215mNRNew Delhi 110002, Delhi NCT
31/==/NZMDelhi Hazrat Nizamuddin (7)X  14:45 14:43+5214:55 14:45+1:0010 2m42600.235209mNRNew Delhi 110013, Delhi NCT
32/==/FDBFaridabad (4)  15:38 15:21+4915:40 15:23+532m32620.945206mNRold Faridabad, Haryana
33/==/AGCAgra Cantt. (6)  19:05+2719:10+285m12787.890174mNCRAgra, Uttar Pradesh
34/==/DHODholpur Junction (3)  19:45+4319:47+432m22840.462177mNCRDholpur, Rajasthan
35/==/GWLGwalior Junction (4)  20:50+5720:55+585m12905.862214mNCRGwalior, Madhya Pradesh
36/==/JHSJhansi Junction (7)X  22:30+5722:40+5810m--21003.567259mNCRJhansi, Uttar Pradesh
37/==/BPLBhopal Junction (6)  02:55 03:03+4803:00 03:05+555 2m131295.339497mWCRBhopal, Madhya Pradesh
38/==/ETItarsi Junction (7)X  05:25+2305:30+275m--31387.158329mWCRItarsi 461111, Madhya Pradesh
39/==/NGPNagpur Junction (8)  10:35+4710:45+5010m231684.274314mCRNagpur 440001, Maharashtra
40/==/SEGMSewagram Junction (5)  11:47+1:2011:49+1:202m--31760.466279mCRWardha, Maharashtra
41/==/CDChandrapur Maharashtra (3)  13:36+1:1013:38+1:102m131879.016194mCRChandrapur 442401, Maharashtra
42/==/BPQBalharshah Junction (5)  14:30+3114:40+3610m331892.874188mCRBallarpur. Ph : 07172 - 240341, Maharashtra
43/==/RDMRamagundam (3)  16:35+4316:37+432m232034.650170mSCRKarimnagar Dist. Ph : 08728 - 255237, Telangana
44/==/WLWarangal (3)X  18:38+2918:43+295m132135.867271mSCRWarangal., Telangana
45/==/KMTKhammam (2)X  20:19+2620:20+341m132243.331118mSCRKhammam 507001, Telangana
46/==/BZAVijayawada Junction (10)X  23:35+923:45+1010m732343.78224mSCRVijayawada 520001, Andhra Pradesh
47/==/TELTenali Junction (5)X  00:10 00:08+3200:12 00:10+322m242375.06916mSCRTel: 08644-227834, Andhra Pradesh
48/==/OGLOngole (3)  01:45 01:43+3201:47 01:45+322m342482.07712mSCROngole, Andhra Pradesh
49/==/NLRNellore (4)  03:18 03:16+1003:20 03:18+92m342598.83321mSCRNellore, Andhra Pradesh
50/==/GDRGudur Junction (3)  04:28+604:30+62m142637.27119mSCRGudur, Andhra Pradesh
51/==/RURenigunta Junction (5)X  05:40+2805:50+3010m242720.640113mSCRChittoor District, Andhra Pradesh
52/==/TPTYTirupati Main (5)  06:05+2406:10+255m242730.555150mSCRChittoor Distt, Andhra Pradesh
53/--/CTOChittoor (3)  07:28+4207:30+422m--42802.424305mSCR517001., Andhra Pradesh
54/--/KPDKatpadi Junction (5)X  08:55 08:52+108:57+72 5m342835.471213mSRVellore 632007, Tamil Nadu
55/==/JTJJolarpettai Junction (5)X  10:08+610:10+62m--42919.380405mSRJolarpettai, Tamil Nadu
56/==/SASalem Junction (6)  11:40+811:45+85m--43039.543283mSRSalem, Tamil Nadu
57/==/EDErode Junction (4)  12:55 13:10+113:20+925 10m343100.970175mSRErode ph.no: 0424-2256111, Tamil Nadu
58/==/TUPTiruppur (2)X  14:03+2014:05+202m143151.155305mSRTiruppur. Ph:0421-2200450, Tamil Nadu
59/==/CBECoimbatore Main Junction (6)X  15:00+515:05+55m143201.644416mSRCoimbatore 641001, Tamil Nadu
60/==/PGTPalakkad Junction (4)  16:20+316:25+55m143256.95484mSRPalghat Tel: 0491 2555231, Kerala
61/==/SRRShoranur Junction (7)  17:15+517:25+910m243301.56526mSRShoranur ph.no 0466-2222913, Kerala
62%==%CLTKozhikode Main (4)X  18:45+018:50+05m443387.87911mSRCalicut Tel: 0495 2701234, Kerala
63%==%TLYThalassery (2)  19:42+419:45+43m--43456.2359mSRKannur, Kerala
64%==%CANKannur Main (4)X  20:10 20:20+1020:15 20:25+105m143476.98214mSRKannur Tel: 0497 2705555, Kerala
65%==%KGQKasaragod (3)  21:28+021:30+02m243562.93718mSRTel: 04994 220800, Kerala
66%==%MAQMangalore Central (4)  22:45+4-243608.6-14mSRMangalore 575001, Karnataka
Scroll to Top
Scroll to Bottom


Go to Mobile site